Date,TemperatureHighF,TemperatureAvgF,TemperatureLowF,DewpointHighF,DewpointAvgF,DewpointLowF,HumidityHigh,HumidityAvg,HumidityLow,PressureMaxIn,PressureMinIn,WindSpeedMaxMPH,WindSpeedAvgMPH,GustSpeedMaxMPH,PrecipitationSumIn
2013-1-1,40,36,31,33,31,28,90,83,75,30.47,30.33,5,1,13,0.01
2013-1-2,43,36,32,25,22,18,76,57,38,30.29,30.20,5,1,10,0.00
2013-1-3,41,38,33,33,22,18,78,52,38,30.17,30.08,8,2,16,0.00
2013-1-4,51,45,39,46,41,36,91,86,78,30.33,30.15,3,0,6,0.01
2013-1-5,43,42,40,34,32,30,76,69,60,30.20,30.12,5,1,13,0.00
2013-1-6,45,42,36,39,37,32,89,83,77,30.21,30.02,5,0,11,0.08
2013-1-7,51,48,47,49,46,44,96,92,90,30.18,29.95,15,6,25,0.02
2013-1-8,54,51,45,52,47,43,97,88,75,30.03,29.86,11,2,16,0.20
2013-1-9,42,40,36,39,36,33,92,88,82,29.95,29.75,10,2,16,0.39
2013-1-10,41,38,34,37,34,32,94,87,81,30.09,30.04,5,1,10,0.04
2013-1-11,40,36,31,33,24,13,95,66,35,30.31,30.26,11,2,14,0.01
2013-1-12,38,33,28,31,28,23,89,80,70,30.40,30.34,3,0,8,0.00
2013-1-13,38,34,27,29,26,24,89,75,63,30.48,30.42,3,0,8,0.02
2013-1-14,35,34,31,32,30,26,91,87,79,30.54,30.49,4,0,6,0.03
2013-1-15,40,36,32,36,33,29,93,89,84,30.67,30.64,4,0,8,0.00
2013-1-16,38,35,32,34,31,29,90,87,83,30.62,30.50,5,1,12,0.01
2013-1-17,42,36,31,36,32,28,93,86,77,30.42,30.29,5,1,13,0.00
2013-1-18,48,39,32,39,34,30,94,82,66,30.29,30.22,3,0,8,0.01
2013-1-19,45,37,32,34,31,28,92,80,65,30.32,30.25,4,1,10,0.00
2013-1-20,44,37,32,34,31,28,91,79,64,30.33,30.21,4,1,11,0.02
2013-1-21,47,38,30,33,29,25,85,70,54,30.20,30.10,4,1,8,0.02
2013-1-22,42,38,32,29,27,25,78,63,53,30.06,29.90,5,2,11,0.00
2013-1-23,40,38,36,36,32,26,89,79,59,30.11,29.86,4,1,8,0.16
2013-1-24,47,42,36,42,39,33,92,86,78,30.18,30.06,3,0,7,0.12
2013-1-25,50,44,38,48,41,36,93,90,86,30.05,29.93,8,1,11,0.10
2013-1-26,45,42,40,40,39,37,90,87,78,30.03,29.92,5,1,9,0.21
2013-1-27,42,40,38,40,38,36,94,92,90,30.11,30.01,4,0,5,0.40
2013-1-28,44,43,41,42,41,39,92,91,88,30.15,30.10,17,7,25,0.57
2013-1-29,46,45,44,45,44,43,96,95,92,30.45,30.29,11,5,18,0.00
2013-1-30,49,48,47,48,48,46,97,97,96,30.43,30.40,9,4,14,0.26
2013-1-31,50,46,41,49,45,40,98,97,93,30.41,30.32,4,0,7,0.07
2013-2-1,53,48,43,50,45,40,99,90,79,30.37,30.27,3,0,7,0.00
2013-2-2,60,47,38,51,42,36,94,84,66,30.30,30.22,5,1,16,0.00
2013-2-3,47,44,42,44,42,40,93,90,84,30.32,30.23,4,0,5,0.00
2013-2-4,54,49,43,49,43,41,95,82,69,30.16,29.91,5,0,9,0.00
2013-2-5,54,47,45,45,42,39,88,81,61,29.96,29.86,13,1,21,0.18
2013-2-6,49,47,43,42,41,39,85,78,72,30.05,29.77,5,1,14,0.08
2013-2-7,50,44,36,38,35,31,85,73,50,30.12,29.98,6,1,8,0.00
2013-2-8,47,41,30,38,33,28,94,75,57,30.30,30.24,8,2,11,0.01
2013-2-9,47,44,41,43,42,39,95,92,86,30.29,30.24,4,1,5,0.05
2013-2-10,45,43,39,43,39,36,97,87,71,30.36,30.30,4,1,7,28.95
2013-2-11,48,45,42,46,43,39,94,93,89,30.37,30.33,3,0,4,0.06
2013-2-12,50,48,45,48,46,44,97,95,92,30.45,30.39,9,2,17,0.02
2013-2-13,50,46,43,45,41,38,98,83,70,30.50,30.43,7,2,11,0.00
2013-2-14,48,45,40,46,43,37,94,94,92,30.56,30.51,2,0,4,0.05
2013-2-15,61,52,42,48,45,41,95,78,53,30.40,30.17,4,1,9,0.01
2013-2-16,50,47,43,45,42,37,96,83,69,30.26,30.22,16,6,24,0.03
2013-2-17,45,42,38,40,37,34,93,83,71,30.28,30.13,4,1,5,0.00
2013-2-18,49,44,38,40,37,35,92,78,66,29.99,29.74,5,1,13,0.05
2013-2-19,51,46,41,40,36,32,84,70,48,29.93,29.72,11,3,13,0.01
2013-2-20,46,42,37,41,38,35,92,85,75,30.07,29.97,4,1,8,0.15
2013-2-21,45,43,41,41,39,36,87,84,79,30.13,30.06,8,1,11,0.25
2013-2-22,49,44,37,44,39,32,91,82,71,30.00,29.81,22,6,35,0.78
2013-2-23,47,44,40,38,33,26,84,67,44,30.40,30.15,16,6,27,0.08
2013-2-24,50,46,40,39,36,33,87,68,57,30.37,30.09,4,1,9,0.00
2013-2-25,46,43,39,38,36,33,85,77,63,30.33,30.07,21,6,31,0.37
2013-2-26,50,44,35,39,36,32,91,74,53,30.36,30.21,5,1,11,0.04
2013-2-27,53,49,42,44,42,39,89,77,67,30.28,30.20,4,1,9,0.00
2013-2-28,54,50,47,53,49,44,97,95,90,30.35,30.17,8,2,11,0.38
2013-3-1,60,54,50,54,50,47,95,88,75,30.41,30.31,4,1,7,0.05
2013-3-2,55,48,43,52,45,40,96,91,79,30.25,30.14,13,4,21,0.09
2013-3-3,49,44,36,40,35,31,92,73,58,30.31,30.25,9,3,14,0.04
2013-3-4,59,48,35,37,26,11,92,50,16,30.16,29.91,5,1,11,0.02
2013-3-5,47,44,40,41,39,36,89,82,72,29.82,29.69,4,1,10,0.04
2013-3-6,45,43,42,42,41,40,93,91,88,29.87,29.56,6,1,8,0.18
2013-3-7,55,47,40,43,38,34,81,69,46,30.05,29.97,9,2,14,0.00
2013-3-8,57,48,36,43,38,26,93,70,32,30.19,30.05,6,1,9,0.00
2013-3-9,53,45,38,42,37,34,93,76,50,30.50,30.38,8,2,11,0.00
2013-3-10,46,43,39,43,41,36,93,91,88,30.48,30.41,4,1,6,0.11
2013-3-11,55,51,45,51,48,44,96,90,81,30.38,30.22,4,0,7,0.12
2013-3-12,56,52,48,53,49,46,98,88,75,30.16,30.13,5,1,9,0.00
2013-3-13,58,52,50,53,49,46,92,88,81,30.20,30.08,6,1,8,0.09
2013-3-14,54,50,46,49,46,42,96,86,66,30.14,30.05,8,1,13,0.09
2013-3-15,54,50,46,52,48,45,97,93,84,30.22,30.18,10,3,14,0.01
2013-3-16,49,46,42,46,41,35,96,84,69,30.08,29.99,16,6,27,0.22
2013-3-17,50,44,38,44,35,28,89,72,49,30.27,30.23,14,4,21,0.02
2013-3-18,51,46,40,44,36,28,91,70,42,30.25,30.19,11,3,14,0.16
2013-3-19,50,46,39,43,38,31,85,74,51,30.02,29.64,6,2,15,0.20
2013-3-20,51,46,40,49,39,32,94,79,64,30.06,29.43,21,9,34,0.34
2013-3-21,44,39,37,38,35,33,91,85,66,30.29,30.19,19,4,35,0.45
2013-3-22,46,41,34,36,32,23,92,72,42,30.36,30.30,17,4,24,0.07
2013-3-23,51,45,35,39,28,10,90,57,20,30.39,30.28,6,1,8,0.00
2013-3-24,59,51,37,37,28,17,83,45,21,30.24,30.07,3,0,8,0.00
2013-3-25,66,53,41,38,30,15,80,46,17,30.05,29.91,8,2,11,0.00
2013-3-26,56,51,46,46,42,36,87,70,48,30.01,29.95,8,3,11,0.00
2013-3-27,65,54,47,51,45,35,92,74,35,30.00,29.89,8,2,11,0.11
2013-3-28,59,52,47,53,46,42,94,81,53,30.10,29.98,7,1,10,0.09
2013-3-29,66,58,49,52,44,30,93,65,28,30.22,30.14,6,2,9,0.03
2013-3-30,79,62,42,46,39,28,90,51,17,30.17,29.98,11,1,13,0.00
2013-3-31,72,59,45,47,43,31,85,59,23,29.99,29.90,11,4,15,0.00
2013-4-1,57,53,51,48,46,43,85,77,61,30.17,30.05,11,5,15,0.00
2013-4-2,53,51,49,49,47,45,94,85,78,30.21,30.16,8,4,13,0.00
2013-4-3,66,58,48,49,46,44,87,68,52,30.14,29.92,4,0,6,0.00
2013-4-4,61,56,52,54,50,45,88,80,57,29.74,29.63,13,1,25,0.18
2013-4-5,57,53,51,51,47,42,93,80,65,29.90,29.72,8,2,14,0.47
2013-4-6,57,51,47,48,40,30,87,68,42,29.95,29.73,18,3,27,0.26
2013-4-7,50,46,42,43,40,38,88,81,72,29.90,29.64,17,6,24,0.20
2013-4-8,52,49,45,43,39,35,86,69,53,30.28,30.08,14,6,18,0.00
2013-4-9,59,53,43,45,42,38,88,66,46,30.34,30.24,5,1,8,0.00
2013-4-10,54,50,47,48,43,39,87,77,68,30.32,30.02,20,7,28,0.25
2013-4-11,55,50,45,42,35,25,85,60,33,30.34,30.22,12,6,18,0.00
2013-4-12,50,46,39,44,39,33,89,78,55,30.06,29.79,19,3,32,0.15
2013-4-13,48,45,40,40,36,30,80,72,58,30.04,29.98,18,6,27,37.95
2013-4-14,52,47,38,42,34,28,88,61,43,30.02,29.93,14,5,19,0.06
2013-4-15,53,50,41,37,34,30,84,56,43,30.15,30.00,13,5,17,0.02
2013-4-16,56,48,36,43,36,27,87,65,35,30.39,30.25,14,3,20,0.01
2013-4-17,56,51,42,45,38,29,86,63,37,30.48,30.44,13,5,17,0.00
2013-4-18,57,51,45,47,42,38,88,71,52,30.47,30.32,5,1,7,0.06
2013-4-19,51,50,48,50,47,45,93,88,81,30.27,30.10,14,6,19,0.58
2013-4-20,53,50,46,45,43,40,91,75,64,30.34,30.29,11,6,17,0.13
2013-4-21,55,50,45,45,41,32,90,72,43,30.29,30.25,12,5,18,0.00
2013-4-22,65,56,39,40,20,-12,79,36,4,30.46,30.36,12,2,17,0.00
2013-4-23,65,56,36,38,23,0,74,36,8,30.34,30.18,11,4,15,0.00
2013-4-24,71,61,44,38,24,3,75,32,7,30.27,30.04,6,2,8,0.00
2013-4-25,65,57,46,44,40,16,78,56,15,30.15,30.03,11,5,17,0.00
2013-4-26,71,59,46,47,34,15,86,48,14,30.26,30.19,8,3,14,0.00
2013-4-27,56,53,48,46,44,41,84,73,60,30.29,30.23,14,5,21,0.02
2013-4-28,57,53,50,48,42,35,91,68,48,30.27,30.08,14,6,17,38.93
2013-4-29,53,49,46,38,30,21,72,49,31,30.21,30.09,21,8,31,0.02
2013-4-30,56,48,41,37,27,11,79,49,19,30.41,30.24,13,5,20,0.02
2013-5-1,68,54,35,36,24,-2,80,41,7,30.54,30.45,10,2,14,0.00
2013-5-2,75,62,44,35,27,11,64,30,9,30.44,30.29,8,2,14,0.00
2013-5-3,76,67,47,40,31,14,62,30,12,30.34,30.16,9,4,15,0.00
2013-5-4,82,70,54,42,19,-100,57,29,1,30.13,29.97,7,2,10,0.00
2013-5-5,75,66,54,40,30,13,57,32,9,29.88,29.81,4,1,7,0.00
2013-5-6,66,59,52,47,46,43,82,63,45,29.88,29.82,13,6,19,0.00
2013-5-7,60,57,53,46,44,42,71,62,54,30.01,29.94,14,5,20,0.00
2013-5-8,64,58,53,46,44,42,70,59,46,30.15,30.09,10,4,15,0.00
2013-5-9,68,60,51,46,44,40,74,56,38,30.21,30.11,10,4,13,0.00
2013-5-10,67,58,50,49,47,44,87,68,48,30.22,30.13,10,5,16,0.00
2013-5-11,61,55,52,48,46,45,79,73,64,30.18,30.11,4,2,8,0.00
2013-5-15,63,57,55,50,48,46,74,71,61,30.05,29.99,5,0,8,0.25
2013-5-16,70,58,53,53,49,41,85,74,38,30.00,29.89,9,1,14,0.29
2013-5-17,63,57,51,52,47,42,87,71,50,30.07,29.98,16,3,22,0.59
2013-5-18,63,58,54,48,46,42,81,63,55,30.25,30.11,4,1,7,0.00
2013-5-19,60,57,52,42,39,36,67,51,41,30.42,30.37,12,8,21,0.00
2013-5-20,66,58,49,43,41,36,71,55,33,30.30,29.97,12,5,17,0.00
2013-5-21,52,49,47,44,41,35,83,73,55,29.92,29.82,14,5,23,0.23
2013-5-22,53,50,46,47,43,39,82,78,74,29.90,29.88,7,1,11,0.52
2013-5-23,52,50,48,47,45,43,84,81,78,29.97,29.94,4,1,9,0.55
2013-5-24,59,54,50,51,46,43,85,77,68,30.07,29.97,8,2,13,0.31
2013-5-25,59,54,49,50,46,43,85,75,62,30.04,29.95,9,2,12,0.01
2013-5-26,63,59,54,55,47,40,88,65,43,30.00,29.96,14,4,21,0.02
2013-5-27,62,57,53,54,50,44,85,77,59,29.79,29.67,14,3,25,0.12
2013-5-28,60,56,52,50,46,41,79,69,51,29.91,29.78,11,4,16,0.00
2013-5-29,58,54,50,50,46,42,87,74,57,30.00,29.61,12,5,23,0.25
2013-5-30,60,56,52,48,44,40,78,65,49,30.21,30.08,9,2,14,0.39
2013-5-31,66,59,49,48,40,29,83,51,30,30.34,30.23,8,3,12,0.00
2013-6-1,66,61,53,50,44,39,81,54,39,30.20,30.05,11,4,14,0.00
2013-6-2,66,61,56,50,46,44,79,59,47,30.11,30.06,13,6,21,0.00
2013-6-3,66,60,54,46,43,42,66,54,44,30.13,30.07,12,6,19,0.00
2013-6-4,79,68,48,48,41,29,81,43,16,30.11,29.99,11,3,17,0.00
2013-6-5,69,64,54,53,51,48,83,65,53,30.11,30.04,12,6,18,0.00
2013-6-6,70,63,54,52,47,38,77,57,39,30.08,30.03,13,5,19,0.00
2013-6-7,64,61,55,51,48,39,77,62,46,30.16,30.10,12,5,17,0.00
2013-6-8,68,62,49,45,42,39,78,49,36,30.19,30.10,14,6,18,0.00
2013-6-9,65,61,55,42,38,33,58,43,32,30.12,30.04,14,8,22,0.00
2013-6-10,65,59,50,43,38,34,72,48,35,30.00,29.94,13,6,19,0.00
2013-6-11,56,53,52,49,46,45,79,78,78,30.03,30.02,5,1,8,0.02
2013-6-13,63,62,58,46,43,40,62,51,43,30.25,30.21,14,8,24,0.00
2013-6-14,68,61,54,48,45,39,76,56,35,30.25,30.02,7,2,10,0.00
2013-6-15,71,66,52,50,47,39,78,53,32,30.01,29.91,10,4,17,0.00
2013-6-16,67,63,58,49,45,39,65,53,37,30.10,30.07,10,5,16,0.00
2013-6-17,72,65,58,53,48,40,74,56,33,30.05,29.96,11,3,15,0.07
2013-6-18,67,60,52,54,48,38,82,67,38,29.97,29.92,10,2,14,0.25
2013-6-19,66,61,52,52,46,41,86,60,44,30.04,29.95,13,5,19,0.02
2013-6-20,64,61,57,48,44,36,69,53,37,30.11,30.02,13,6,20,0.00
2013-6-21,67,62,55,51,47,42,80,58,44,30.17,30.12,11,4,15,0.02
2013-6-22,81,69,54,54,46,14,84,48,8,30.07,29.84,9,2,13,0.00
2013-6-23,72,64,60,59,55,52,85,73,53,29.76,29.61,8,2,11,0.25
2013-6-24,65,61,56,57,54,51,83,77,67,29.69,29.65,5,1,9,0.42
2013-6-25,72,64,58,58,52,44,85,67,48,29.82,29.66,16,1,27,0.16
2013-6-26,70,65,61,56,54,52,78,68,55,30.02,29.87,8,2,12,0.00
2013-6-27,69,66,62,63,60,58,88,83,76,30.15,30.03,7,1,10,0.02
2013-6-28,79,72,61,64,56,36,90,61,24,30.11,30.06,11,4,17,0.02
2013-6-29,81,73,61,57,52,45,79,52,30,30.10,29.96,8,4,13,0.00
2013-6-30,84,75,60,61,57,53,80,55,37,29.95,29.85,10,3,14,0.00
2013-7-1,76,70,62,60,57,54,86,65,51,30.01,29.95,11,6,18,0.00
2013-7-2,75,70,62,54,51,46,73,51,36,30.11,30.05,12,6,17,0.00
2013-7-3,72,68,61,49,45,37,64,45,29,30.17,30.09,15,8,23,0.00
2013-7-4,68,64,60,48,45,42,61,50,42,30.15,30.07,13,8,21,0.00
2013-7-5,70,65,60,51,47,43,70,52,38,30.05,29.98,13,7,18,0.00
2013-7-6,72,66,58,52,50,48,71,57,44,29.98,29.88,11,6,16,0.00
2013-7-7,68,63,58,50,48,47,72,60,48,30.00,29.93,11,6,17,0.00
2013-7-8,74,63,58,52,48,46,70,59,41,30.10,29.99,8,4,12,0.00
2013-7-9,74,66,58,57,54,50,88,67,47,30.11,30.03,11,5,17,0.00
2013-7-10,67,62,56,48,44,39,73,52,38,30.11,30.00,14,7,21,0.00
2013-7-11,69,64,56,47,39,31,66,42,26,30.08,30.00,13,6,20,0.00
2013-7-12,68,62,53,47,43,37,76,52,33,30.11,30.02,13,6,21,0.00
2013-7-13,74,67,53,46,43,38,76,43,32,30.19,30.07,11,5,17,0.00
2013-7-14,77,67,55,52,42,20,85,46,15,30.12,30.00,13,6,21,0.00
2013-7-15,86,72,54,50,32,-100,77,36,1,30.03,29.80,11,4,17,0.00
2013-7-16,83,72,60,53,47,39,70,45,23,29.89,29.76,11,3,17,0.00
2013-7-17,69,65,59,53,50,47,78,59,46,30.19,30.08,10,4,14,0.00
2013-7-18,73,66,60,51,48,46,65,52,40,30.22,30.11,11,5,16,0.00
2013-7-19,70,63,56,52,50,49,79,63,50,30.17,30.07,14,7,20,0.00
2013-7-20,70,63,56,52,49,48,80,63,49,30.10,29.99,12,6,19,0.00
2013-7-21,68,63,57,53,51,49,76,65,54,30.00,29.94,14,7,20,0.00
2013-7-22,71,65,58,52,51,50,75,62,51,30.06,29.99,10,5,14,0.00
2013-7-23,77,66,56,57,53,49,87,64,41,30.06,29.96,10,4,15,0.00
2013-7-24,74,65,55,52,50,47,79,60,44,30.08,30.01,11,5,15,0.00
2013-7-25,76,67,55,52,48,40,79,54,32,30.12,30.06,12,5,18,0.00
2013-7-26,72,65,56,51,47,36,77,54,29,30.19,30.12,17,8,24,0.00
2013-7-27,69,62,57,51,48,43,75,60,42,30.19,30.06,13,7,18,0.00
2013-7-28,63,61,58,51,49,47,75,64,57,30.05,29.99,11,5,16,0.00
2013-7-29,70,63,57,51,49,46,75,60,46,30.04,29.95,10,4,16,0.00
2013-7-30,70,62,58,53,50,48,73,65,53,30.15,30.04,11,4,17,0.00
2013-7-31,65,61,57,52,51,49,77,69,59,30.11,30.03,11,5,14,0.00
2013-8-1,64,62,59,54,52,50,76,68,62,30.09,30.05,8,3,14,0.00
2013-8-2,68,62,58,54,52,49,79,70,55,30.12,30.07,8,2,12,0.00
2013-8-3,76,70,61,55,53,49,79,55,45,30.10,29.99,10,4,14,0.00
2013-8-5,72,64,56,54,52,47,87,68,43,30.04,29.94,10,5,15,0.00
2013-8-6,76,67,55,53,50,47,81,57,39,30.02,29.92,10,4,14,0.00
2013-8-7,72,62,56,54,52,51,86,71,49,30.06,29.98,12,5,17,0.00
2013-8-8,72,66,61,58,55,48,85,69,45,30.03,29.95,11,5,17,0.00
2013-8-9,66,63,57,56,54,52,81,74,66,29.95,29.88,12,5,17,0.00
2013-8-10,69,64,60,55,54,51,80,69,60,30.03,29.97,11,4,18,0.00
2013-8-11,69,65,60,53,50,48,71,60,51,30.07,30.00,8,2,12,0.00
2013-8-12,72,67,61,52,48,44,71,50,39,30.06,30.02,11,5,17,0.00
2013-8-13,78,70,55,53,45,19,77,45,12,30.09,29.91,8,3,14,0.00
2013-8-14,77,67,59,58,54,48,78,64,37,29.94,29.90,11,2,16,0.09
2013-8-15,69,66,64,62,61,59,87,82,75,29.97,29.91,7,2,10,0.01
2013-8-16,76,70,63,63,58,48,89,68,46,30.04,29.96,11,4,15,0.00
2013-8-17,72,67,62,59,57,55,80,70,59,30.09,30.03,9,4,13,0.00
2013-8-18,75,69,58,58,53,47,83,58,39,30.13,30.05,12,4,16,0.00
2013-8-19,71,66,59,55,52,44,81,62,41,30.13,30.08,12,5,22,0.00
2013-8-20,77,69,55,52,47,42,81,48,30,30.14,30.01,11,4,15,0.00
2013-8-21,86,73,55,53,44,29,78,41,14,30.19,29.84,6,2,10,0.21
2013-8-22,78,67,59,56,52,48,77,61,36,29.89,29.84,10,2,16,0.00
2013-8-23,72,66,62,56,54,49,79,64,46,29.91,29.86,11,3,17,0.00
2013-8-24,71,66,59,56,50,40,85,58,34,29.90,29.86,11,4,15,0.00
2013-8-25,73,66,56,55,50,45,83,56,41,29.92,29.86,4,1,7,0.00
2013-8-26,76,66,61,58,52,39,81,63,27,29.93,29.85,11,2,14,0.11
2013-8-27,79,69,63,59,57,52,81,66,41,29.90,29.79,10,2,15,0.03
2013-8-28,79,69,62,63,59,54,86,71,46,29.89,29.82,9,2,14,0.00
2013-8-29,76,70,65,66,60,55,86,72,53,30.00,29.82,14,2,24,0.35
2013-8-30,74,70,64,60,52,44,85,55,35,30.14,30.05,9,4,13,0.00
2013-8-31,81,74,63,57,52,39,81,49,24,29.96,29.82,10,3,14,0.00
2013-9-1,75,70,62,56,50,41,73,49,32,29.88,29.81,11,4,19,0.00
2013-9-2,73,69,63,60,55,52,75,62,51,29.90,29.86,11,2,14,0.05
2013-9-3,74,68,60,59,55,47,82,63,42,29.98,29.93,10,3,16,0.00
2013-9-4,72,67,62,58,56,52,84,68,52,30.06,29.99,10,4,14,0.00
2013-9-5,69,65,62,60,58,56,87,79,70,30.01,29.93,10,3,19,0.57
2013-9-6,68,65,62,59,58,56,87,78,67,30.10,30.01,11,4,17,0.02
2013-9-7,78,71,60,62,57,52,88,63,44,30.05,29.95,6,2,9,0.00
2013-9-8,80,71,61,64,59,54,92,68,44,30.08,29.99,9,3,15,0.00
2013-9-9,76,68,61,60,57,55,81,69,54,30.05,29.94,9,4,14,0.00
2013-9-10,89,77,61,63,58,50,91,55,28,29.92,29.76,4,1,8,0.00
2013-9-11,74,68,61,60,57,54,87,69,53,29.96,29.87,10,5,15,0.00
2013-9-12,70,64,59,57,56,54,85,75,64,30.00,29.93,10,4,14,0.00
2013-9-13,65,63,60,58,56,54,86,79,72,29.98,29.85,8,3,12,0.00
2013-9-14,73,66,61,59,58,55,85,75,60,29.86,29.71,6,1,10,0.00
2013-9-15,66,63,61,59,57,56,84,81,77,29.84,29.72,9,2,14,0.02
2013-9-16,68,65,60,60,56,51,86,72,56,29.95,29.89,12,4,18,0.00
2013-9-17,67,63,56,54,49,44,85,60,45,29.94,29.86,15,6,22,0.00
2013-9-18,69,63,55,56,49,40,86,63,36,30.07,30.01,10,2,14,0.02
2013-9-19,80,67,52,53,46,28,87,51,17,29.93,29.77,9,2,14,0.00
2013-9-20,70,62,53,56,54,48,85,78,49,29.68,29.61,9,1,15,0.18
2013-9-21,67,60,55,57,53,50,88,79,60,29.73,29.67,9,1,15,0.09
2013-9-22,59,58,56,53,50,49,84,77,72,29.73,29.57,6,1,14,0.20
2013-9-25,62,57,53,51,44,42,77,62,48,30.01,29.77,4,1,8,0.06
2013-9-26,65,59,51,53,46,39,89,65,38,30.14,30.06,13,3,18,0.00
2013-9-27,58,56,53,54,51,47,88,84,78,30.07,29.90,4,1,11,0.00
2013-9-28,65,59,53,58,53,46,89,81,66,29.61,29.41,24,4,36,0.00
2013-9-29,57,55,54,53,49,47,88,82,74,29.60,29.22,27,3,37,0.00
2013-9-30,60,57,52,47,44,38,73,61,47,29.93,29.58,18,7,31,0.00
2013-10-1,70,55,50,61,45,39,81,70,47,30.15,29.94,11,1,17,0.74
2013-10-2,60,53,48,50,45,40,82,76,65,30.12,30.05,5,0,9,0.27
2013-10-3,62,55,47,50,45,40,88,70,52,30.41,30.33,4,0,6,0.00
2013-10-4,73,59,46,47,44,38,84,60,29,30.44,30.32,4,1,11,0.00
2013-10-5,77,63,47,48,36,13,83,45,10,30.30,30.11,3,0,8,0.00
2013-10-6,77,62,50,51,42,11,85,54,8,30.02,29.91,10,1,16,0.00
2013-10-7,59,56,53,47,45,41,76,68,55,30.09,29.96,13,5,20,0.25
2013-10-8,58,54,50,48,44,40,79,71,53,30.07,29.96,14,5,21,0.18
2013-10-9,62,55,44,48,41,30,86,63,31,30.11,29.97,7,1,9,0.01
2013-10-10,57,54,52,49,46,44,80,74,67,30.06,29.95,11,1,17,0.06
2013-10-11,59,56,50,48,42,37,80,60,45,30.13,30.08,8,2,11,0.00
2013-10-12,62,55,49,48,43,36,82,65,44,30.16,30.07,5,0,8,0.01
2013-10-13,68,56,45,47,42,37,84,63,34,30.31,30.24,4,1,7,0.01
2013-10-14,69,56,44,45,41,34,83,60,30,30.37,30.29,3,0,8,0.00
2013-10-15,71,58,44,46,37,23,82,53,17,30.32,30.14,4,0,7,0.00
2013-10-16,66,57,47,48,44,42,83,64,44,30.15,30.09,2,0,8,0.01
2013-10-17,66,56,48,47,44,42,82,67,45,30.23,30.14,4,0,10,0.00
2013-10-18,70,58,46,46,42,35,84,58,28,30.18,30.07,3,0,8,0.00
2013-10-19,68,56,47,50,46,42,85,70,40,30.14,30.08,5,1,8,0.00
2013-10-20,64,54,47,46,44,42,83,68,49,30.15,30.06,4,1,9,0.00
2013-10-21,69,57,47,49,45,43,85,67,42,30.09,29.98,4,1,11,0.00
2013-10-22,67,56,47,50,47,42,87,74,50,30.04,29.96,7,2,11,0.01
2013-10-23,54,52,48,49,48,45,88,85,82,30.02,29.97,6,2,11,0.01
2013-10-24,53,52,50,49,48,46,89,86,83,30.09,30.01,8,2,12,0.00
2013-10-25,61,56,50,50,46,41,84,71,58,30.26,30.18,2,0,5,0.00
2013-10-26,63,53,44,48,43,39,84,70,50,30.29,30.16,7,0,10,0.01
2013-10-27,60,53,47,49,42,34,84,67,38,30.19,29.87,14,3,24,0.11
2013-10-28,60,55,48,32,19,3,52,27,10,29.89,29.81,14,4,20,0.00
2013-10-29,60,49,37,41,27,1,78,50,9,30.02,29.96,4,1,7,0.00
2013-10-30,59,52,41,41,38,35,78,59,42,30.15,30.11,4,0,8,0.00
2013-10-31,56,54,50,50,48,44,82,80,77,30.24,30.13,3,0,4,0.06
2013-11-1,64,57,50,50,48,46,85,72,60,30.24,29.91,3,0,9,0.01
2013-11-2,55,51,46,47,37,29,79,61,40,30.00,29.66,26,11,39,0.29
2013-11-3,47,46,46,36,36,36,68,67,67,30.00,29.99,6,3,10,0.00
2013-11-4,50,46,41,43,37,32,78,59,38,30.08,29.97,4,1,9,0.07
2013-11-5,55,54,51,50,47,44,85,79,69,30.12,30.00,11,2,16,0.10
2013-11-6,56,55,54,49,47,46,81,77,68,30.17,30.06,4,0,6,0.17
2013-11-7,55,52,49,49,43,38,81,71,54,30.02,29.79,21,9,40,0.69
2013-11-8,55,52,47,45,43,39,81,71,62,30.15,30.09,9,0,14,0.05
2013-11-9,51,50,46,43,42,40,80,74,68,30.04,30.00,2,0,8,0.02
2013-11-10,57,53,49,45,44,42,79,70,60,30.04,30.00,4,1,11,0.01
2013-11-11,62,55,48,45,39,34,79,56,41,30.11,29.96,3,1,8,0.00
2013-11-12,63,58,52,51,47,45,82,69,57,30.35,30.15,3,0,11,0.04
2013-11-13,58,54,50,49,46,43,82,74,62,30.45,30.32,4,0,6,0.00
2013-11-14,52,49,45,45,43,39,85,78,70,30.17,30.07,8,2,114,1.49
2013-11-15,51,49,47,44,41,39,78,74,68,29.97,29.49,14,5,23,0.24
2013-11-16,50,48,46,39,37,32,75,65,55,29.74,29.56,17,4,29,0.20
2013-11-17,54,52,48,48,46,42,83,79,76,29.89,29.82,4,0,10,0.16
2013-11-18,54,52,51,48,46,45,81,78,74,29.80,29.57,4,1,11,0.21
2013-11-19,50,46,41,43,30,17,82,55,34,29.95,29.74,13,5,20,0.01
2013-11-20,45,39,33,24,14,-4,62,38,12,30.34,30.13,14,4,24,0.00
2013-11-21,46,39,32,26,21,16,69,49,31,30.56,30.50,4,0,8,0.00
2013-11-22,51,42,34,23,14,-8,58,37,8,30.52,30.37,4,1,12,0.00
2013-11-23,56,46,37,28,17,-4,65,36,10,30.28,30.11,5,1,11,0.00
2013-11-24,54,43,36,29,24,14,68,51,21,30.19,30.08,4,1,9,0.00
2013-11-25,53,46,37,28,24,17,65,43,25,30.27,30.22,4,1,8,0.00
2013-11-26,50,46,37,34,29,21,69,54,32,30.17,30.05,4,1,8,0.03
2013-11-27,56,48,42,36,30,25,73,52,30,29.96,29.88,4,0,9,0.00
2013-11-28,54,46,38,34,31,24,76,56,33,30.16,30.02,2,0,5,0.00
2013-11-29,49,44,38,41,35,28,78,73,65,30.32,30.15,2,0,4,0.01
2013-11-30,53,48,45,44,41,38,80,76,67,30.33,30.10,3,0,4,0.18
2013-12-1,56,52,46,50,47,39,88,83,75,30.11,29.88,21,9,34,2.57
2013-12-2,46,41,38,39,33,30,77,71,59,30.01,29.87,17,4,26,0.21
2013-12-3,44,37,34,32,28,22,80,69,55,30.26,30.00,8,0,11,0.02
2013-12-4,39,34,30,26,20,11,72,57,32,30.29,30.23,4,0,8,0.00
2013-12-5,37,32,27,21,13,1,67,47,28,30.27,30.08,5,0,12,0.00
2013-12-6,37,30,26,19,9,-5,64,42,25,30.09,29.96,12,2,17,0.00
2013-12-7,33,26,21,5,0,-14,47,33,12,30.39,30.07,7,1,10,0.00
2013-12-8,34,25,17,15,10,3,64,53,40,30.54,30.37,3,0,5,0.00
2013-12-9,32,29,22,23,16,9,69,60,52,30.54,30.45,4,0,6,0.00
2013-12-10,46,35,31,40,27,22,82,74,63,30.47,30.34,2,0,4,0.08
2013-12-11,40,37,34,34,30,28,81,77,72,30.34,30.11,4,1,11,0.06
2013-12-12,40,37,34,34,30,26,79,75,65,30.14,30.03,4,1,11,0.13
2013-12-13,50,44,40,42,38,34,81,78,73,30.40,30.13,4,0,6,0.02
2013-12-14,47,43,41,41,38,36,83,80,78,30.40,30.28,4,0,11,0.00
2013-12-15,50,46,42,43,40,36,82,80,75,30.44,30.34,4,0,6,0.14
2013-12-16,46,44,40,41,38,34,84,81,78,30.44,30.19,4,0,8,0.00
2013-12-17,43,41,38,37,35,32,84,81,78,30.20,30.13,3,0,7,0.05
2013-12-18,51,41,34,42,35,28,84,80,74,30.13,30.01,10,1,16,0.06
2013-12-19,41,36,31,30,27,22,82,70,47,30.28,30.09,4,0,6,0.02
2013-12-20,45,37,34,41,31,26,85,77,71,30.17,29.78,7,1,11,0.44
2013-12-21,49,46,45,44,42,41,87,84,81,30.17,29.84,9,3,15,0.04
2013-12-22,52,49,46,48,44,42,87,85,83,30.31,30.15,3,0,5,0.17
2013-12-23,52,48,42,48,43,37,87,83,77,30.51,30.21,17,3,26,0.50
2013-12-24,46,42,38,41,36,33,85,82,79,30.57,30.45,3,0,4,0.02
2013-12-25,44,39,37,36,33,31,82,78,72,30.45,30.34,5,0,11,0.02
2013-12-26,43,38,35,36,32,30,84,80,73,30.34,30.16,3,1,7,0.00
2013-12-27,45,42,36,40,37,32,86,82,77,30.34,30.16,6,1,8,0.04
2013-12-28,48,44,39,41,37,31,84,77,65,30.47,30.34,5,1,8,0.00
2013-12-29,45,40,36,37,34,30,81,77,71,30.42,30.24,4,0,8,0.00
2013-12-30,46,42,39,37,35,33,80,76,72,30.25,30.11,8,0,11,0.00
2013-12-31,48,45,39,42,38,33,80,78,75,30.33,30.16,2,0,4,0.02
2014-1-1,48,45,43,42,39,36,83,79,74,30.32,30.18,4,0,10,0.02
2014-1-2,52,46,42,42,38,36,82,74,61,30.19,29.94,10,1,15,0.24